Time;durP1;ratioP1;P1;durP2;ratioP2;P2;SDS_P1;SDS_P2;PMS_P1;PMS_P2;Temp;Humidity;BMP_temperature;BMP_pressure;BME280_temperature;BME280_humidity;BME280_pressure;Samples;Min_cycle;Max_cycle;Signal;HPM_P1;HPM_P2
2023/07/03 00:00:43;;;;;;;14.77;5.55;;;;;;;;;;5066293;28;43259;-26
2023/07/03 00:03:13;;;;;;;13.23;4.38;;;;;;;;;;5065132;28;43879;-27
2023/07/03 00:05:41;;;;;;;13.30;4.50;;;;;;;;;;5066760;28;41155;-27
2023/07/03 00:08:09;;;;;;;16.33;5.15;;;;;;;;;;5066880;28;43651;-28
2023/07/03 00:10:37;;;;;;;14.57;4.97;;;;;;;;;;5064235;28;44643;-26
2023/07/03 00:13:05;;;;;;;12.93;4.35;;;;;;;;;;5066954;28;40345;-29
2023/07/03 00:15:35;;;;;;;12.70;4.57;;;;;;;;;;5066251;28;42897;-29
2023/07/03 00:18:03;;;;;;;12.10;4.22;;;;;;;;;;5065562;28;40662;-27
2023/07/03 00:20:31;;;;;;;16.02;4.95;;;;;;;;;;5064779;28;42316;-29
2023/07/03 00:22:59;;;;;;;17.92;5.63;;;;;;;;;;5065149;28;42070;-30
2023/07/03 00:25:27;;;;;;;17.88;5.03;;;;;;;;;;5065425;28;41646;-29
2023/07/03 00:27:55;;;;;;;15.73;4.72;;;;;;;;;;5067160;28;43536;-28
2023/07/03 00:30:23;;;;;;;11.85;4.40;;;;;;;;;;5066177;28;43282;-27
2023/07/03 00:32:52;;;;;;;10.75;4.10;;;;;;;;;;5063904;28;39025;-25
2023/07/03 00:35:20;;;;;;;15.57;4.15;;;;;;;;;;5064275;28;42897;-28
2023/07/03 00:37:48;;;;;;;12.15;4.20;;;;;;;;;;5059913;28;43541;-27
2023/07/03 00:40:16;;;;;;;16.58;4.57;;;;;;;;;;5063994;28;42494;-24
2023/07/03 00:42:44;;;;;;;12.05;4.38;;;;;;;;;;5064622;28;43175;-25
2023/07/03 00:45:12;;;;;;;14.27;4.80;;;;;;;;;;5065040;28;41391;-24
2023/07/03 00:47:40;;;;;;;12.00;4.18;;;;;;;;;;5066267;28;42749;-25
2023/07/03 00:50:10;;;;;;;12.82;4.43;;;;;;;;;;5066473;28;44462;-27
2023/07/03 00:52:38;;;;;;;18.38;4.57;;;;;;;;;;5065641;28;40192;-25
2023/07/03 00:55:07;;;;;;;13.60;4.32;;;;;;;;;;5064215;28;41385;-29
2023/07/03 00:57:35;;;;;;;13.65;4.63;;;;;;;;;;5066307;28;44119;-31
2023/07/03 01:00:04;;;;;;;14.73;4.47;;;;;;;;;;5063837;28;41773;-27
2023/07/03 01:02:34;;;;;;;11.52;4.47;;;;;;;;;;5057651;28;44242;-24
2023/07/03 01:05:04;;;;;;;14.13;4.72;;;;;;;;;;5066114;28;39923;-25
2023/07/03 01:07:35;;;;;;;13.45;4.45;;;;;;;;;;5062185;28;42293;-27
2023/07/03 01:10:05;;;;;;;12.05;4.18;;;;;;;;;;5063917;28;46691;-24
2023/07/03 01:12:34;;;;;;;13.30;4.85;;;;;;;;;;5064532;28;40077;-26
2023/07/03 01:15:02;;;;;;;13.07;4.28;;;;;;;;;;5061412;28;41096;-24
2023/07/03 01:17:30;;;;;;;12.52;4.15;;;;;;;;;;5063643;28;41943;-24
2023/07/03 01:19:58;;;;;;;12.27;4.18;;;;;;;;;;5052423;28;41479;-24
2023/07/03 01:22:27;;;;;;;12.05;4.13;;;;;;;;;;5062685;28;42216;-31
2023/07/03 01:24:57;;;;;;;16.33;4.63;;;;;;;;;;5065334;28;40485;-25
2023/07/03 01:27:26;;;;;;;14.98;5.03;;;;;;;;;;5064588;28;42522;-26
2023/07/03 01:29:54;;;;;;;16.70;4.47;;;;;;;;;;5063563;28;42135;-25
2023/07/03 01:32:22;;;;;;;12.55;4.70;;;;;;;;;;5064223;28;40462;-25
2023/07/03 01:34:53;;;;;;;11.32;4.38;;;;;;;;;;5061946;28;42460;-24
2023/07/03 01:37:21;;;;;;;10.80;4.38;;;;;;;;;;5063043;28;42851;-26
2023/07/03 01:39:51;;;;;;;17.35;4.68;;;;;;;;;;5063769;28;39172;-24
2023/07/03 01:42:20;;;;;;;15.65;4.28;;;;;;;;;;5062881;28;42957;-24
2023/07/03 01:44:48;;;;;;;15.48;4.60;;;;;;;;;;5065435;28;40473;-27
2023/07/03 01:47:16;;;;;;;13.73;4.45;;;;;;;;;;5062549;28;42745;-26
2023/07/03 01:49:45;;;;;;;14.55;4.00;;;;;;;;;;5064885;28;43606;-31
2023/07/03 01:52:14;;;;;;;12.38;4.05;;;;;;;;;;5065573;28;40184;-27
2023/07/03 01:54:44;;;;;;;10.35;3.83;;;;;;;;;;5065767;28;43473;-24
2023/07/03 01:57:13;;;;;;;10.88;4.00;;;;;;;;;;5063210;28;43655;-24
2023/07/03 01:59:42;;;;;;;11.85;4.13;;;;;;;;;;5062800;28;40412;-29
2023/07/03 02:02:11;;;;;;;14.65;4.53;;;;;;;;;;5063953;28;41395;-24
2023/07/03 02:04:40;;;;;;;17.08;4.40;;;;;;;;;;5062916;28;42271;-24
2023/07/03 02:07:09;;;;;;;12.32;4.35;;;;;;;;;;5065512;28;42993;-26
2023/07/03 02:09:37;;;;;;;16.15;4.38;;;;;;;;;;5078928;28;43329;-25
2023/07/03 02:12:05;;;;;;;12.77;4.63;;;;;;;;;;5063670;28;39653;-25
2023/07/03 02:14:35;;;;;;;13.15;4.03;;;;;;;;;;5063009;28;41857;-25
2023/07/03 02:17:06;;;;;;;16.67;4.45;;;;;;;;;;5062332;28;42231;-24
2023/07/03 02:19:35;;;;;;;14.05;4.28;;;;;;;;;;5062307;28;40319;-25
2023/07/03 02:22:03;;;;;;;11.18;3.67;;;;;;;;;;5063193;28;41600;-26
2023/07/03 02:24:31;;;;;;;10.13;3.63;;;;;;;;;;5062258;28;43314;-26
2023/07/03 02:27:00;;;;;;;15.15;4.15;;;;;;;;;;5071763;28;40220;-25
2023/07/03 02:29:31;;;;;;;15.98;4.30;;;;;;;;;;5066034;28;44139;-28
2023/07/03 02:31:58;;;;;;;13.55;4.38;;;;;;;;;;5067882;28;40567;-24
2023/07/03 02:34:28;;;;;;;10.75;3.67;;;;;;;;;;5066069;28;41797;-24
2023/07/03 02:36:58;;;;;;;12.00;3.80;;;;;;;;;;5067892;28;43071;-24
2023/07/03 02:39:28;;;;;;;12.82;3.80;;;;;;;;;;5064339;28;41738;-23
2023/07/03 02:41:57;;;;;;;11.93;4.18;;;;;;;;;;5068356;28;42724;-26
2023/07/03 02:44:25;;;;;;;15.57;4.40;;;;;;;;;;5065496;28;43031;-31
2023/07/03 02:46:53;;;;;;;13.75;4.38;;;;;;;;;;5066811;28;40478;-24
2023/07/03 02:49:21;;;;;;;11.23;4.05;;;;;;;;;;5066111;28;41497;-24
2023/07/03 02:51:51;;;;;;;12.68;4.75;;;;;;;;;;5065781;28;38852;-25
2023/07/03 02:54:20;;;;;;;15.43;4.03;;;;;;;;;;5067122;28;20238;-24
2023/07/03 02:56:48;;;;;;;14.70;4.57;;;;;;;;;;5068115;28;43566;-24
2023/07/03 02:59:16;;;;;;;15.70;4.95;;;;;;;;;;5067455;28;40506;-26
2023/07/03 03:01:44;;;;;;;15.25;4.60;;;;;;;;;;5068754;28;42797;-24
2023/07/03 03:04:16;;;;;;;16.60;4.70;;;;;;;;;;5066088;28;44991;-27
2023/07/03 03:06:44;;;;;;;18.40;4.97;;;;;;;;;;5065621;28;40082;-26
2023/07/03 03:09:14;;;;;;;14.32;4.20;;;;;;;;;;5066762;28;41483;-23
2023/07/03 03:11:42;;;;;;;16.02;5.28;;;;;;;;;;5065633;28;39055;-24
2023/07/03 03:14:10;;;;;;;14.93;4.20;;;;;;;;;;5065596;28;42850;-25
2023/07/03 03:16:39;;;;;;;18.20;4.00;;;;;;;;;;5065831;28;41907;-23
2023/07/03 03:19:07;;;;;;;15.88;4.50;;;;;;;;;;5067950;28;40643;-27
2023/07/03 03:21:35;;;;;;;13.82;4.55;;;;;;;;;;5066552;28;42997;-24
2023/07/03 03:24:03;;;;;;;15.70;4.53;;;;;;;;;;5083181;28;42004;-23
2023/07/03 03:26:32;;;;;;;14.07;5.00;;;;;;;;;;5066822;28;41378;-25
2023/07/03 03:29:00;;;;;;;17.08;5.40;;;;;;;;;;5067273;28;42856;-26
2023/07/03 03:31:30;;;;;;;16.60;4.50;;;;;;;;;;5065482;28;43268;-25
2023/07/03 03:34:03;;;;;;;14.95;4.75;;;;;;;;;;5065241;28;41281;-26
2023/07/03 03:36:32;;;;;;;14.93;5.20;;;;;;;;;;5066363;28;43317;-30
2023/07/03 03:39:01;;;;;;;18.17;5.03;;;;;;;;;;5082752;28;40187;-26
2023/07/03 03:41:30;;;;;;;15.90;5.05;;;;;;;;;;5064570;28;40838;-25
2023/07/03 03:43:59;;;;;;;18.70;5.15;;;;;;;;;;5066192;28;43941;-26
2023/07/03 03:46:27;;;;;;;15.48;4.20;;;;;;;;;;5064393;28;38814;-27
2023/07/03 03:48:55;;;;;;;15.55;4.35;;;;;;;;;;5065028;28;42442;-26
2023/07/03 03:51:24;;;;;;;12.77;4.13;;;;;;;;;;5060963;28;42328;-26
2023/07/03 03:53:52;;;;;;;17.05;4.68;;;;;;;;;;5083146;28;39355;-26
2023/07/03 03:56:20;;;;;;;17.98;4.57;;;;;;;;;;5069570;28;41870;-25
2023/07/03 03:58:48;;;;;;;14.00;4.60;;;;;;;;;;5063843;28;39426;-24
2023/07/03 04:01:17;;;;;;;14.75;4.93;;;;;;;;;;5066311;28;42282;-28
2023/07/03 04:03:46;;;;;;;14.98;4.70;;;;;;;;;;5066242;28;44664;-25
2023/07/03 04:06:14;;;;;;;16.20;5.03;;;;;;;;;;5065871;28;40356;-27
2023/07/03 04:08:42;;;;;;;17.75;5.13;;;;;;;;;;5060099;28;42656;-28
2023/07/03 04:11:10;;;;;;;14.15;4.75;;;;;;;;;;5063531;28;44113;-27
2023/07/03 04:13:38;;;;;;;15.05;4.65;;;;;;;;;;5061610;28;40395;-27
2023/07/03 04:16:06;;;;;;;19.02;4.95;;;;;;;;;;5065478;28;42636;-25
2023/07/03 04:18:35;;;;;;;17.33;5.22;;;;;;;;;;5055650;28;41222;-26
2023/07/03 04:21:03;;;;;;;20.33;4.45;;;;;;;;;;5063190;28;43631;-29
2023/07/03 04:23:31;;;;;;;16.80;4.72;;;;;;;;;;5057842;28;41720;-30
2023/07/03 04:26:00;;;;;;;17.33;5.20;;;;;;;;;;5065626;28;40551;-26
2023/07/03 04:28:28;;;;;;;18.75;4.50;;;;;;;;;;5056874;28;42380;-32
2023/07/03 04:30:56;;;;;;;19.73;5.07;;;;;;;;;;5065186;28;43491;-27
2023/07/03 04:33:24;;;;;;;13.80;4.43;;;;;;;;;;5051315;28;41543;-26
2023/07/03 04:35:54;;;;;;;17.55;4.70;;;;;;;;;;5064411;28;42522;-26
2023/07/03 04:38:24;;;;;;;15.80;4.65;;;;;;;;;;5053175;28;43647;-24
2023/07/03 04:40:53;;;;;;;14.70;4.80;;;;;;;;;;5061120;28;42006;-24
2023/07/03 04:43:21;;;;;;;21.63;5.40;;;;;;;;;;5065747;28;44635;-27
2023/07/03 04:45:49;;;;;;;15.73;5.30;;;;;;;;;;5065319;28;40403;-27
2023/07/03 04:48:18;;;;;;;17.35;5.15;;;;;;;;;;5056671;28;43006;-25
2023/07/03 04:50:48;;;;;;;19.25;5.32;;;;;;;;;;5065895;28;43491;-26
2023/07/03 04:53:21;;;;;;;17.95;4.70;;;;;;;;;;5062292;28;41553;-25
2023/07/03 04:55:49;;;;;;;24.45;6.07;;;;;;;;;;5052319;28;43889;-24
2023/07/03 04:58:18;;;;;;;18.75;5.38;;;;;;;;;;5065132;28;43579;-29
2023/07/03 05:00:46;;;;;;;19.45;5.47;;;;;;;;;;5066182;28;40862;-26
2023/07/03 05:03:14;;;;;;;21.65;6.28;;;;;;;;;;5060752;28;43472;-26
2023/07/03 05:05:43;;;;;;;19.35;5.00;;;;;;;;;;5064933;28;40482;-26
2023/07/03 05:08:11;;;;;;;18.52;5.68;;;;;;;;;;5066481;28;42817;-25
2023/07/03 05:10:40;;;;;;;22.15;5.65;;;;;;;;;;5065768;28;43399;-27
2023/07/03 05:13:08;;;;;;;20.55;5.25;;;;;;;;;;5065566;28;41457;-23
2023/07/03 05:15:36;;;;;;;16.95;5.97;;;;;;;;;;5065431;28;43202;-28
2023/07/03 05:18:04;;;;;;;21.73;5.88;;;;;;;;;;5066217;28;43084;-25
2023/07/03 05:20:32;;;;;;;21.13;6.03;;;;;;;;;;5065332;28;41819;-32
2023/07/03 05:23:00;;;;;;;18.33;5.63;;;;;;;;;;5066267;28;43382;-26
2023/07/03 05:25:28;;;;;;;22.00;5.47;;;;;;;;;;5065435;28;40264;-24
2023/07/03 05:27:57;;;;;;;17.05;5.50;;;;;;;;;;5065567;28;43817;-25
2023/07/03 05:30:25;;;;;;;16.42;5.53;;;;;;;;;;5065238;28;44455;-25
2023/07/03 05:32:54;;;;;;;19.17;5.78;;;;;;;;;;5066271;28;40290;-26
2023/07/03 05:35:22;;;;;;;21.25;5.88;;;;;;;;;;5065112;28;42856;-24
2023/07/03 05:37:50;;;;;;;19.50;5.50;;;;;;;;;;5066257;28;43343;-25
2023/07/03 05:40:18;;;;;;;24.13;5.45;;;;;;;;;;5054512;28;40982;-24
2023/07/03 05:42:46;;;;;;;23.50;6.43;;;;;;;;;;5065901;28;42574;-25
2023/07/03 05:45:15;;;;;;;19.90;5.93;;;;;;;;;;5065137;28;41609;-25
2023/07/03 05:47:43;;;;;;;20.58;5.80;;;;;;;;;;5062077;28;43750;-23
2023/07/03 05:50:11;;;;;;;22.40;6.18;;;;;;;;;;5065716;28;44365;-25
2023/07/03 05:52:41;;;;;;;20.33;5.60;;;;;;;;;;5065132;28;41253;-24
2023/07/03 05:55:09;;;;;;;21.33;5.22;;;;;;;;;;5064888;28;44127;-26
2023/07/03 05:57:37;;;;;;;17.15;5.32;;;;;;;;;;5064771;28;43736;-27
2023/07/03 06:00:12;;;;;;;21.00;5.97;;;;;;;;;;5068088;28;40392;-24
2023/07/03 06:02:42;;;;;;;23.42;6.25;;;;;;;;;;5068113;28;42695;-24
2023/07/03 06:05:11;;;;;;;19.60;5.85;;;;;;;;;;5069103;28;43533;-23
2023/07/03 06:07:39;;;;;;;20.88;5.95;;;;;;;;;;5068597;28;43671;-24
2023/07/03 06:10:08;;;;;;;23.70;6.13;;;;;;;;;;5068891;28;44002;-24
2023/07/03 06:12:36;;;;;;;20.85;6.00;;;;;;;;;;5068315;28;40736;-22
2023/07/03 06:15:04;;;;;;;24.00;6.43;;;;;;;;;;5069563;28;43812;-23
2023/07/03 06:17:32;;;;;;;22.88;5.82;;;;;;;;;;5067712;28;42955;-23
2023/07/03 06:20:02;;;;;;;17.10;5.82;;;;;;;;;;5069007;28;40527;-26
2023/07/03 06:22:30;;;;;;;17.83;6.32;;;;;;;;;;5068361;28;42131;-27
2023/07/03 06:24:58;;;;;;;20.83;6.30;;;;;;;;;;5068245;28;43264;-25
2023/07/03 06:27:26;;;;;;;20.10;6.18;;;;;;;;;;5068601;28;40330;-23
2023/07/03 06:29:54;;;;;;;18.23;5.57;;;;;;;;;;5067348;28;43462;-23
2023/07/03 06:32:22;;;;;;;16.80;6.03;;;;;;;;;;5064035;28;41686;-23
2023/07/03 06:34:50;;;;;;;24.05;6.28;;;;;;;;;;5067589;28;42606;-23
2023/07/03 06:37:20;;;;;;;22.05;6.07;;;;;;;;;;5065778;28;43977;-23
2023/07/03 06:39:48;;;;;;;19.90;5.65;;;;;;;;;;5067469;28;40913;-23
2023/07/03 06:42:16;;;;;;;22.92;6.88;;;;;;;;;;5067968;28;42639;-24
2023/07/03 06:44:48;;;;;;;17.63;5.38;;;;;;;;;;5064948;28;43535;-24
2023/07/03 06:47:16;;;;;;;21.58;5.88;;;;;;;;;;5055238;28;40916;-24
2023/07/03 06:49:44;;;;;;;19.65;5.85;;;;;;;;;;5068241;28;42366;-23
2023/07/03 06:52:12;;;;;;;19.92;5.97;;;;;;;;;;5056486;28;41413;-23
2023/07/03 06:54:42;;;;;;;20.52;5.75;;;;;;;;;;5055970;28;42694;-23
2023/07/03 06:57:09;;;;;;;19.25;5.45;;;;;;;;;;5064948;28;41914;-23
2023/07/03 06:59:37;;;;;;;17.92;5.25;;;;;;;;;;5067366;28;41137;-23
2023/07/03 07:02:06;;;;;;;20.48;5.43;;;;;;;;;;5068052;28;42996;-23
2023/07/03 07:04:34;;;;;;;15.25;5.03;;;;;;;;;;5067533;28;43219;-23
2023/07/03 07:07:02;;;;;;;21.90;5.82;;;;;;;;;;5067090;28;41002;-23
2023/07/03 07:09:30;;;;;;;23.75;5.82;;;;;;;;;;5067443;28;42329;-23
2023/07/03 07:11:59;;;;;;;22.98;6.00;;;;;;;;;;5065566;28;31281;-23
2023/07/03 07:14:27;;;;;;;22.50;5.00;;;;;;;;;;5067379;28;43195;-23
2023/07/03 07:16:55;;;;;;;13.40;4.72;;;;;;;;;;5068506;28;43843;-22
2023/07/03 07:19:23;;;;;;;16.13;4.55;;;;;;;;;;5066663;28;40363;-22
2023/07/03 07:21:51;;;;;;;14.80;4.53;;;;;;;;;;5061230;28;42771;-22
2023/07/03 07:24:19;;;;;;;18.85;5.18;;;;;;;;;;5059020;28;43386;-23
2023/07/03 07:26:47;;;;;;;15.68;4.95;;;;;;;;;;5066150;28;41314;-22
2023/07/03 07:29:17;;;;;;;22.30;4.63;;;;;;;;;;5067049;28;42591;-23
2023/07/03 07:31:45;;;;;;;14.70;4.63;;;;;;;;;;5067810;28;43539;-23
2023/07/03 07:34:13;;;;;;;17.25;5.15;;;;;;;;;;5067184;28;43061;-23
2023/07/03 07:36:41;;;;;;;21.63;5.63;;;;;;;;;;5066905;28;43343;-23
2023/07/03 07:39:09;;;;;;;17.83;4.85;;;;;;;;;;5067007;28;41241;-23
2023/07/03 07:41:37;;;;;;;16.25;4.63;;;;;;;;;;5062148;28;42424;-23
2023/07/03 07:44:05;;;;;;;17.75;5.15;;;;;;;;;;5067121;28;43138;-23
2023/07/03 07:46:35;;;;;;;14.20;4.70;;;;;;;;;;5064749;28;40416;-23
2023/07/03 07:49:03;;;;;;;16.73;4.82;;;;;;;;;;5066042;28;42540;-23
2023/07/03 07:51:31;;;;;;;17.25;4.93;;;;;;;;;;5062415;28;44619;-23
2023/07/03 07:53:59;;;;;;;18.35;5.03;;;;;;;;;;5064470;28;40006;-23
2023/07/03 07:56:27;;;;;;;19.45;4.80;;;;;;;;;;5054866;28;43991;-23
2023/07/03 07:58:58;;;;;;;17.48;5.13;;;;;;;;;;5057560;28;41544;-23
2023/07/03 08:01:26;;;;;;;19.13;4.18;;;;;;;;;;5052640;28;43235;-23
2023/07/03 08:03:56;;;;;;;15.95;4.93;;;;;;;;;;5056959;28;43582;-24
2023/07/03 08:06:24;;;;;;;19.02;4.95;;;;;;;;;;5064727;28;40255;-23
2023/07/03 08:08:52;;;;;;;16.38;4.88;;;;;;;;;;5059230;28;41305;-23
2023/07/03 08:11:20;;;;;;;12.18;3.40;;;;;;;;;;5061758;28;42975;-23
2023/07/03 08:13:48;;;;;;;16.42;4.05;;;;;;;;;;5061441;28;40384;-24
2023/07/03 08:16:17;;;;;;;15.38;4.30;;;;;;;;;;5066451;28;42971;-23
2023/07/03 08:18:45;;;;;;;12.00;4.47;;;;;;;;;;5067204;28;40490;-23
2023/07/03 08:21:18;;;;;;;13.88;4.15;;;;;;;;;;5066603;28;42592;-23
2023/07/03 08:23:46;;;;;;;15.18;4.50;;;;;;;;;;5065076;28;43518;-23
2023/07/03 08:26:17;;;;;;;14.15;3.85;;;;;;;;;;5067198;28;40103;-23
2023/07/03 08:28:45;;;;;;;16.80;4.00;;;;;;;;;;5067067;28;42790;-23
2023/07/03 08:31:13;;;;;;;14.88;4.18;;;;;;;;;;5064709;28;43386;-23
2023/07/03 08:33:41;;;;;;;15.10;4.53;;;;;;;;;;5050543;28;40746;-23
2023/07/03 08:36:09;;;;;;;10.02;4.05;;;;;;;;;;5056277;28;43393;-24
2023/07/03 08:38:41;;;;;;;12.82;3.72;;;;;;;;;;5058104;28;43342;-23
2023/07/03 08:41:11;;;;;;;12.05;4.43;;;;;;;;;;5061986;28;43578;-23
2023/07/03 08:43:40;;;;;;;12.77;4.32;;;;;;;;;;5064714;28;44396;-23
2023/07/03 08:46:09;;;;;;;12.38;4.10;;;;;;;;;;5064888;28;40875;-23
2023/07/03 08:48:37;;;;;;;12.13;4.20;;;;;;;;;;5066011;28;43348;-23
2023/07/03 08:51:05;;;;;;;12.95;3.78;;;;;;;;;;5064715;28;43582;-24
2023/07/03 08:53:35;;;;;;;9.75;3.95;;;;;;;;;;5064637;28;40958;-24
2023/07/03 08:56:06;;;;;;;13.45;4.28;;;;;;;;;;5063082;28;42917;-26
2023/07/03 08:58:34;;;;;;;12.35;4.20;;;;;;;;;;5063870;28;43462;-35
2023/07/03 09:01:08;;;;;;;12.93;4.20;;;;;;;;;;5066617;28;42278;-25
2023/07/03 09:03:40;;;;;;;14.27;4.47;;;;;;;;;;5062708;28;43477;-26
2023/07/03 09:06:09;;;;;;;16.35;4.38;;;;;;;;;;5062645;28;40560;-27
2023/07/03 09:08:40;;;;;;;12.02;4.35;;;;;;;;;;5065542;28;43312;-28
2023/07/03 09:11:10;;;;;;;13.85;3.78;;;;;;;;;;5063218;28;43426;-26
2023/07/03 09:13:40;;;;;;;11.55;3.47;;;;;;;;;;5064843;28;40507;-25
2023/07/03 09:16:09;;;;;;;12.57;3.63;;;;;;;;;;5066230;28;43707;-25
2023/07/03 09:18:38;;;;;;;14.30;4.18;;;;;;;;;;5065258;28;43832;-28
2023/07/03 09:21:07;;;;;;;10.52;3.83;;;;;;;;;;5067071;28;40344;-27
2023/07/03 09:23:36;;;;;;;9.63;3.63;;;;;;;;;;5065371;28;43244;-26
2023/07/03 09:26:05;;;;;;;11.02;3.70;;;;;;;;;;5064986;28;41381;-31
2023/07/03 09:28:36;;;;;;;14.10;4.10;;;;;;;;;;5066124;28;43437;-29
2023/07/03 09:31:04;;;;;;;11.23;3.08;;;;;;;;;;5066150;28;44091;-26
2023/07/03 09:33:34;;;;;;;14.60;4.30;;;;;;;;;;5064780;28;40006;-30
2023/07/03 09:36:02;;;;;;;11.63;3.50;;;;;;;;;;5066415;28;43295;-27
2023/07/03 09:38:31;;;;;;;11.77;4.20;;;;;;;;;;5065631;28;43969;-26
2023/07/03 09:41:00;;;;;;;12.45;3.53;;;;;;;;;;5067405;28;40319;-27
2023/07/03 09:43:30;;;;;;;12.75;3.38;;;;;;;;;;5063993;28;41065;-26
2023/07/03 09:46:04;;;;;;;17.13;4.03;;;;;;;;;;5065552;28;40347;-26
2023/07/03 09:48:32;;;;;;;9.38;3.65;;;;;;;;;;5061327;28;44137;-33
2023/07/03 09:51:00;;;;;;;8.65;3.22;;;;;;;;;;5065497;28;44586;-28
2023/07/03 09:53:38;;;;;;;13.95;3.42;;;;;;;;;;5058669;28;40495;-26
2023/07/03 09:56:11;;;;;;;9.70;3.50;;;;;;;;;;5050716;28;43354;-25
2023/07/03 09:58:39;;;;;;;12.32;3.50;;;;;;;;;;5051504;28;43419;-25
2023/07/03 10:01:10;;;;;;;15.15;3.40;;;;;;;;;;5064768;28;40925;-26
2023/07/03 10:04:02;;;;;;;8.52;3.45;;;;;;;;;;5060620;28;42583;-26
2023/07/03 10:06:31;;;;;;;14.18;2.97;;;;;;;;;;5064852;28;43788;-25
2023/07/03 10:09:00;;;;;;;9.65;2.88;;;;;;;;;;5064311;28;43770;-26
2023/07/03 10:11:33;;;;;;;16.48;3.55;;;;;;;;;;5062128;28;43932;-26
2023/07/03 10:14:01;;;;;;;11.93;3.67;;;;;;;;;;5064951;28;39784;-24
2023/07/03 10:16:30;;;;;;;11.55;3.58;;;;;;;;;;5064204;28;43435;-24
2023/07/03 10:18:58;;;;;;;11.27;3.20;;;;;;;;;;5065291;28;43375;-24
2023/07/03 10:21:26;;;;;;;9.05;3.33;;;;;;;;;;5057479;28;41182;-25
2023/07/03 10:23:54;;;;;;;8.57;3.90;;;;;;;;;;5064560;28;42636;-24
2023/07/03 10:26:23;;;;;;;12.95;3.03;;;;;;;;;;5064358;28;44201;-24
2023/07/03 10:28:53;;;;;;;11.43;3.42;;;;;;;;;;5064825;28;41258;-24
2023/07/03 10:31:22;;;;;;;10.35;3.50;;;;;;;;;;5064453;28;43436;-23
2023/07/03 10:33:56;;;;;;;11.25;3.38;;;;;;;;;;5065264;28;40758;-25
2023/07/03 10:36:25;;;;;;;12.00;3.45;;;;;;;;;;5062075;28;42711;-24
2023/07/03 10:38:55;;;;;;;13.18;3.30;;;;;;;;;;5056179;28;44314;-23
2023/07/03 10:41:24;;;;;;;9.05;3.30;;;;;;;;;;5049050;28;41028;-25
2023/07/03 10:43:53;;;;;;;13.48;3.95;;;;;;;;;;5055606;28;43037;-24
2023/07/03 10:46:23;;;;;;;12.93;3.88;;;;;;;;;;5065124;28;43602;-25
2023/07/03 10:48:54;;;;;;;11.60;3.25;;;;;;;;;;5065940;28;40485;-24
2023/07/03 10:51:23;;;;;;;10.73;3.15;;;;;;;;;;5064562;28;42883;-25
2023/07/03 10:53:52;;;;;;;12.13;3.33;;;;;;;;;;5061662;28;40120;-25
2023/07/03 10:56:22;;;;;;;12.02;3.63;;;;;;;;;;5067718;28;43357;-29
2023/07/03 10:58:53;;;;;;;12.75;3.60;;;;;;;;;;5067222;28;43730;-27
2023/07/03 11:01:22;;;;;;;9.77;3.20;;;;;;;;;;5066988;28;40101;-29
2023/07/03 11:03:52;;;;;;;12.00;3.40;;;;;;;;;;5065980;28;42498;-26
2023/07/03 11:06:43;;;;;;;7.53;2.58;;;;;;;;;;5065480;28;44162;-25
2023/07/03 11:09:12;;;;;;;12.05;3.00;;;;;;;;;;5067722;28;40980;-27
2023/07/03 11:11:41;;;;;;;14.88;3.35;;;;;;;;;;5067300;28;43595;-24
2023/07/03 11:14:10;;;;;;;10.30;3.15;;;;;;;;;;5068492;28;43370;-26
2023/07/03 11:16:40;;;;;;;10.07;3.05;;;;;;;;;;5067615;28;42763;-25
2023/07/03 11:19:12;;;;;;;10.70;2.72;;;;;;;;;;5067398;28;43039;-25
2023/07/03 11:21:47;;;;;;;8.65;2.40;;;;;;;;;;5055428;28;40588;-25
2023/07/03 11:24:19;;;;;;;13.68;2.53;;;;;;;;;;5065567;28;40717;-24
2023/07/03 11:26:49;;;;;;;11.25;2.80;;;;;;;;;;5066234;28;42515;-24
2023/07/03 11:29:20;;;;;;;8.63;3.22;;;;;;;;;;5062975;28;40136;-24
2023/07/03 11:31:48;;;;;;;7.00;2.55;;;;;;;;;;5061988;28;42677;-26
2023/07/03 11:34:16;;;;;;;11.52;2.80;;;;;;;;;;5066148;28;43527;-26
2023/07/03 11:36:49;;;;;;;9.00;1.95;;;;;;;;;;5064898;28;43448;-25
2023/07/03 11:39:30;;;;;;;10.55;2.67;;;;;;;;;;5058676;28;44062;-25
2023/07/03 11:42:11;;;;;;;8.77;2.50;;;;;;;;;;5059071;28;41054;-25
2023/07/03 11:44:43;;;;;;;5.72;2.00;;;;;;;;;;5065920;28;43909;-27
2023/07/03 11:47:11;;;;;;;7.95;2.95;;;;;;;;;;5066377;28;43521;-26
2023/07/03 11:49:43;;;;;;;9.75;2.50;;;;;;;;;;5067297;28;40157;-27
2023/07/03 11:52:13;;;;;;;9.13;2.70;;;;;;;;;;5064349;28;41725;-25
2023/07/03 11:54:41;;;;;;;8.38;2.50;;;;;;;;;;5066194;28;44952;-24
2023/07/03 11:57:09;;;;;;;16.52;3.17;;;;;;;;;;5061578;28;41502;-27
2023/07/03 11:59:38;;;;;;;12.13;2.53;;;;;;;;;;5066534;28;43236;-27
2023/07/03 12:02:25;;;;;;;9.52;2.50;;;;;;;;;;5066561;28;40105;-24
2023/07/03 12:04:53;;;;;;;8.43;2.22;;;;;;;;;;5067597;28;43353;-28
2023/07/03 12:07:42;;;;;;;11.68;2.75;;;;;;;;;;5065723;28;44463;-26
2023/07/03 12:10:31;;;;;;;8.00;2.15;;;;;;;;;;5064935;28;41162;-25
2023/07/03 12:13:17;;;;;;;10.68;3.13;;;;;;;;;;5065421;28;42542;-24
2023/07/03 12:15:47;;;;;;;8.75;2.75;;;;;;;;;;5066542;28;44620;-28
2023/07/03 12:18:15;;;;;;;6.38;2.30;;;;;;;;;;5067071;28;41281;-25
2023/07/03 12:20:43;;;;;;;8.85;2.28;;;;;;;;;;5066705;28;43666;-24
2023/07/03 12:23:11;;;;;;;11.65;3.08;;;;;;;;;;5065662;28;42212;-24
2023/07/03 12:25:39;;;;;;;9.38;2.42;;;;;;;;;;5066642;28;42657;-26
2023/07/03 12:28:10;;;;;;;9.85;2.50;;;;;;;;;;5066818;28;43486;-25
2023/07/03 12:30:38;;;;;;;8.15;2.33;;;;;;;;;;5062748;28;40966;-25
2023/07/03 12:33:08;;;;;;;8.07;2.22;;;;;;;;;;5066978;28;43644;-25
2023/07/03 12:35:37;;;;;;;7.20;2.63;;;;;;;;;;5054737;28;44587;-25
2023/07/03 12:38:05;;;;;;;7.03;2.20;;;;;;;;;;5066535;28;39810;-24
2023/07/03 12:40:33;;;;;;;8.13;2.58;;;;;;;;;;5066478;28;42667;-25
2023/07/03 12:43:01;;;;;;;7.53;2.22;;;;;;;;;;5066331;28;44343;-24
2023/07/03 12:45:30;;;;;;;8.77;2.22;;;;;;;;;;5065468;28;42251;-24
2023/07/03 12:48:01;;;;;;;6.22;2.03;;;;;;;;;;5066271;28;44644;-31
2023/07/03 12:50:31;;;;;;;11.93;2.63;;;;;;;;;;5062300;28;41370;-26
2023/07/03 12:52:59;;;;;;;12.45;2.30;;;;;;;;;;5066200;28;42832;-24
2023/07/03 12:55:27;;;;;;;7.45;2.28;;;;;;;;;;5066047;28;44141;-24
2023/07/03 12:57:55;;;;;;;12.93;2.88;;;;;;;;;;5065762;28;40037;-24
2023/07/03 13:00:24;;;;;;;10.95;2.35;;;;;;;;;;5065416;28;43375;-24
2023/07/03 13:02:52;;;;;;;8.48;2.55;;;;;;;;;;5065532;28;43665;-24
2023/07/03 13:05:21;;;;;;;8.55;2.95;;;;;;;;;;5065103;28;40258;-27
2023/07/03 13:07:51;;;;;;;10.73;2.63;;;;;;;;;;5066176;28;44045;-25
2023/07/03 13:10:19;;;;;;;8.90;2.55;;;;;;;;;;5063456;28;41686;-25
2023/07/03 13:12:47;;;;;;;10.57;2.65;;;;;;;;;;5065496;28;43839;-30
2023/07/03 13:15:30;;;;;;;9.07;2.88;;;;;;;;;;5064313;28;44607;-24
2023/07/03 13:18:02;;;;;;;8.75;2.45;;;;;;;;;;5066000;28;40934;-25
2023/07/03 13:20:30;;;;;;;10.18;2.58;;;;;;;;;;5065791;28;42376;-24
2023/07/03 13:23:00;;;;;;;7.97;2.40;;;;;;;;;;5065749;28;43341;-26
2023/07/03 13:25:31;;;;;;;7.32;2.25;;;;;;;;;;5064981;28;40384;-23
2023/07/03 13:27:59;;;;;;;8.25;2.40;;;;;;;;;;5065459;28;44252;-24
2023/07/03 13:30:31;;;;;;;7.75;2.42;;;;;;;;;;5065958;28;40886;-25
2023/07/03 13:33:00;;;;;;;7.95;2.30;;;;;;;;;;5065548;28;42864;-24
2023/07/03 13:35:29;;;;;;;8.98;2.45;;;;;;;;;;5053641;28;43189;-24
2023/07/03 13:38:18;;;;;;;9.95;2.58;;;;;;;;;;5065301;28;41386;-25
2023/07/03 13:40:46;;;;;;;7.40;2.38;;;;;;;;;;5065700;28;43611;-25
2023/07/03 13:43:18;;;;;;;9.85;2.22;;;;;;;;;;5065600;28;43035;-25
2023/07/03 13:45:46;;;;;;;6.97;1.90;;;;;;;;;;5064732;28;41008;-25
2023/07/03 13:48:14;;;;;;;6.40;1.92;;;;;;;;;;5066175;28;43743;-25
2023/07/03 13:50:42;;;;;;;10.07;1.95;;;;;;;;;;5065347;28;40111;-25
2023/07/03 13:53:10;;;;;;;7.90;2.17;;;;;;;;;;5065081;28;43546;-25
2023/07/03 13:55:39;;;;;;;6.80;1.90;;;;;;;;;;5064803;28;44438;-25
2023/07/03 13:58:07;;;;;;;5.47;1.42;;;;;;;;;;5065490;28;41049;-25
2023/07/03 14:00:35;;;;;;;4.90;1.55;;;;;;;;;;5064387;28;43013;-25
2023/07/03 14:03:04;;;;;;;8.07;1.92;;;;;;;;;;5063044;28;44064;-25
2023/07/03 14:05:32;;;;;;;5.50;1.40;;;;;;;;;;5063314;28;40487;-25
2023/07/03 14:08:00;;;;;;;7.88;1.98;;;;;;;;;;5053097;28;42486;-25
2023/07/03 14:10:28;;;;;;;8.25;1.73;;;;;;;;;;5065202;28;43734;-25
2023/07/03 14:12:57;;;;;;;7.15;1.55;;;;;;;;;;5065619;28;43285;-25
2023/07/03 14:15:27;;;;;;;6.75;1.80;;;;;;;;;;5064181;28;43323;-25
2023/07/03 14:17:55;;;;;;;7.32;1.70;;;;;;;;;;5063505;28;40911;-25
2023/07/03 14:20:23;;;;;;;5.40;1.60;;;;;;;;;;5052958;28;41158;-25
2023/07/03 14:22:51;;;;;;;7.13;2.00;;;;;;;;;;5067922;28;43266;-25
2023/07/03 14:25:19;;;;;;;8.30;1.80;;;;;;;;;;5068284;28;40376;-25
2023/07/03 14:27:47;;;;;;;6.50;1.73;;;;;;;;;;5068185;28;42668;-25
2023/07/03 14:30:16;;;;;;;9.50;1.45;;;;;;;;;;5068413;28;43292;-25
2023/07/03 14:32:44;;;;;;;6.15;1.23;;;;;;;;;;5069065;28;40404;-25
2023/07/03 14:35:23;;;;;;;5.55;1.73;;;;;;;;;;5052435;28;44560;-24
2023/07/03 14:37:51;;;;;;;3.35;1.05;;;;;;;;;;5068660;28;41332;-25
2023/07/03 14:40:19;;;;;;;6.38;1.40;;;;;;;;;;5067840;28;42705;-24
2023/07/03 14:42:47;;;;;;;5.68;1.35;;;;;;;;;;5067581;28;43319;-25
2023/07/03 14:45:15;;;;;;;7.00;1.13;;;;;;;;;;5068521;28;41281;-25